PWSweather.com
Personal Weather Stations
Station Observations

Acton, CA 93510

Lat: 34.47703, Lon: -118.17483

Elevation: 2900

Station Type: Davis Vantage Pro 2

http://www.actonastro.com/weather/current.php

Latest ConditionsUpdated 11:03:17 AM PST Saturday, Jan 31, 2015
Currently Today's Max Today's Min Today's Average
Temperature 56.0°F13.3°C 56.0°F13.3°C 44.8°F7.1°C 48.7°F9.3°C
Dew Point 39.6°F4.2°C 42.5°F5.8°C 36.0°F2.2°C 39.4°F4.1°C
Winds 16.0 mph ENE25.7 kmh ENE 16.0 mph ENE25.7 kmh ENE - 3.4 mph 5.5 kmh
Wind Gusts 21.0 mph33.8 kmh 21.0 mph33.8 kmh - -
Humidity 54% 83% 53% 70%
Pressure 29.82 in1009.8 mb 29.83 in1010.2 mb 29.70 in1005.8 mb -
Hour Temp Dew Point Humidity Winds Wind Gusts Pressure Precip Precip Rate Daily Precip Total
11:03 AM 56.0°F13.3°C 39.6°F4.2°C 54% 16.0 mph ENE25.7 kmh ENE 21.0 mph33.8 kmh 29.82 in1009.8 mb 0.00 in0.0 mm 0.00 in/hr0.0 mm/hr 0.00 in0.0 mm
10:58 AM 55.6°F13.1°C 39.7°F4.3°C 55% 6.0 mph E9.7 kmh E 21.0 mph33.8 kmh 29.82 in1009.8 mb 0.00 in0.0 mm 0.00 in/hr0.0 mm/hr 0.00 in0.0 mm
10:53 AM 55.3°F12.9°C 38.9°F3.8°C 54% 12.0 mph E19.3 kmh E 21.0 mph33.8 kmh 29.82 in1009.8 mb 0.00 in0.0 mm 0.00 in/hr0.0 mm/hr 0.00 in0.0 mm
10:48 AM 55.6°F13.1°C 38.7°F3.7°C 53% 16.0 mph NE25.7 kmh NE 19.0 mph30.6 kmh 29.82 in1009.8 mb 0.00 in0.0 mm 0.00 in/hr0.0 mm/hr 0.00 in0.0 mm
10:43 AM 56.0°F13.3°C 40.1°F4.5°C 55% 4.0 mph E6.4 kmh E 14.0 mph22.5 kmh 29.82 in1009.8 mb 0.00 in0.0 mm 0.00 in/hr0.0 mm/hr 0.00 in0.0 mm
10:38 AM 55.6°F13.1°C 39.7°F4.3°C 55% 6.0 mph E9.7 kmh E 16.0 mph25.7 kmh 29.82 in1009.8 mb 0.00 in0.0 mm 0.00 in/hr0.0 mm/hr 0.00 in0.0 mm
10:33 AM 55.1°F12.8°C 39.7°F4.3°C 56% 8.0 mph ENE12.9 kmh ENE 16.0 mph25.7 kmh 29.82 in1009.8 mb 0.00 in0.0 mm 0.00 in/hr0.0 mm/hr 0.00 in0.0 mm
10:28 AM 54.7°F12.6°C 39.8°F4.3°C 57% 12.0 mph E19.3 kmh E 17.0 mph27.4 kmh 29.83 in1010.2 mb 0.00 in0.0 mm 0.00 in/hr0.0 mm/hr 0.00 in0.0 mm
10:23 AM 54.2°F12.3°C 40.2°F4.6°C 59% 11.0 mph E17.7 kmh E 17.0 mph27.4 kmh 29.83 in1010.2 mb 0.00 in0.0 mm 0.00 in/hr0.0 mm/hr 0.00 in0.0 mm
10:18 AM 53.9°F12.2°C 39.9°F4.4°C 59% 6.0 mph ENE9.7 kmh ENE 17.0 mph27.4 kmh 29.83 in1010.2 mb 0.00 in0.0 mm 0.00 in/hr0.0 mm/hr 0.00 in0.0 mm
10:13 AM 53.8°F12.1°C 39.8°F4.3°C 59% 4.0 mph E6.4 kmh E 17.0 mph27.4 kmh 29.82 in1009.8 mb 0.00 in0.0 mm 0.00 in/hr0.0 mm/hr 0.00 in0.0 mm
10:08 AM 53.6°F12.0°C 39.6°F4.2°C 59% 6.0 mph E9.7 kmh E 17.0 mph27.4 kmh 29.82 in1009.8 mb 0.00 in0.0 mm 0.00 in/hr0.0 mm/hr 0.00 in0.0 mm
10:03 AM 53.8°F12.1°C 39.4°F4.1°C 58% 12.0 mph E19.3 kmh E 17.0 mph27.4 kmh 29.82 in1009.8 mb 0.00 in0.0 mm 0.00 in/hr0.0 mm/hr 0.00 in0.0 mm
09:58 AM 53.8°F12.1°C 40.2°F4.6°C 60% 6.0 mph ENE9.7 kmh ENE 16.0 mph25.7 kmh 29.82 in1009.8 mb 0.00 in0.0 mm 0.00 in/hr0.0 mm/hr 0.00 in0.0 mm
09:53 AM 53.6°F12.0°C 39.6°F4.2°C 59% 10.0 mph ENE16.1 kmh ENE 16.0 mph25.7 kmh 29.82 in1009.8 mb 0.00 in0.0 mm 0.00 in/hr0.0 mm/hr 0.00 in0.0 mm
09:48 AM 53.6°F12.0°C 40.5°F4.7°C 61% 6.0 mph ESE9.7 kmh ESE 16.0 mph25.7 kmh 29.82 in1009.8 mb 0.00 in0.0 mm 0.00 in/hr0.0 mm/hr 0.00 in0.0 mm
09:43 AM 53.2°F11.8°C 40.1°F4.5°C 61% 11.0 mph E17.7 kmh E 16.0 mph25.7 kmh 29.82 in1009.8 mb 0.00 in0.0 mm 0.00 in/hr0.0 mm/hr 0.00 in0.0 mm
09:38 AM 53.2°F11.8°C 39.7°F4.3°C 60% 13.0 mph E20.9 kmh E 14.0 mph22.5 kmh 29.82 in1009.8 mb 0.00 in0.0 mm 0.00 in/hr0.0 mm/hr 0.00 in0.0 mm
09:33 AM 53.6°F12.0°C 40.5°F4.7°C 61% 13.0 mph ENE20.9 kmh ENE 13.0 mph20.9 kmh 29.82 in1009.8 mb 0.00 in0.0 mm 0.00 in/hr0.0 mm/hr 0.00 in0.0 mm
09:28 AM 53.8°F12.1°C 40.7°F4.8°C 61% 7.0 mph E11.3 kmh E 11.0 mph17.7 kmh 29.80 in1009.1 mb 0.00 in0.0 mm 0.00 in/hr0.0 mm/hr 0.00 in0.0 mm
09:23 AM 53.6°F12.0°C 40.9°F4.9°C 62% 5.0 mph E8.0 kmh E 11.0 mph17.7 kmh 29.80 in1009.1 mb 0.00 in0.0 mm 0.00 in/hr0.0 mm/hr 0.00 in0.0 mm
09:18 AM 53.3°F11.8°C 41.0°F5.0°C 63% 8.0 mph SSE12.9 kmh SSE 11.0 mph17.7 kmh 29.80 in1009.1 mb 0.00 in0.0 mm 0.00 in/hr0.0 mm/hr 0.00 in0.0 mm
09:13 AM 52.8°F11.6°C 41.0°F5.0°C 64% 6.0 mph SE9.7 kmh SE 11.0 mph17.7 kmh 29.80 in1009.1 mb 0.00 in0.0 mm 0.00 in/hr0.0 mm/hr 0.00 in0.0 mm
09:08 AM 52.5°F11.4°C 40.7°F4.8°C 64% 5.0 mph ENE8.0 kmh ENE 11.0 mph17.7 kmh 29.80 in1009.1 mb 0.00 in0.0 mm 0.00 in/hr0.0 mm/hr 0.00 in0.0 mm
09:03 AM 52.0°F11.1°C 40.6°F4.8°C 65% 4.0 mph SE6.4 kmh SE 11.0 mph17.7 kmh 29.80 in1009.1 mb 0.00 in0.0 mm 0.00 in/hr0.0 mm/hr 0.00 in0.0 mm
08:58 AM 51.7°F10.9°C 40.3°F4.6°C 65% 6.0 mph ESE9.7 kmh ESE 11.0 mph17.7 kmh 29.80 in1009.1 mb 0.00 in0.0 mm 0.00 in/hr0.0 mm/hr 0.00 in0.0 mm
08:53 AM 51.1°F10.6°C 40.1°F4.5°C 66% 8.0 mph SE12.9 kmh SE 10.0 mph16.1 kmh 29.80 in1009.1 mb 0.00 in0.0 mm 0.00 in/hr0.0 mm/hr 0.00 in0.0 mm
08:48 AM 50.5°F10.3°C 40.0°F4.4°C 67% 1.0 mph ESE1.6 kmh ESE 10.0 mph16.1 kmh 29.80 in1009.1 mb 0.00 in0.0 mm 0.00 in/hr0.0 mm/hr 0.00 in0.0 mm
08:43 AM 50.1°F10.1°C 39.6°F4.2°C 67% 2.0 mph SE3.2 kmh SE 10.0 mph16.1 kmh 29.79 in1008.8 mb 0.00 in0.0 mm 0.00 in/hr0.0 mm/hr 0.00 in0.0 mm
08:38 AM 49.9°F9.9°C 39.8°F4.3°C 68% 1.0 mph ESE1.6 kmh ESE 10.0 mph16.1 kmh 29.79 in1008.8 mb 0.00 in0.0 mm 0.00 in/hr0.0 mm/hr 0.00 in0.0 mm
08:33 AM 49.5°F9.7°C 39.4°F4.1°C 68% 1.0 mph SSE1.6 kmh SSE 8.0 mph12.9 kmh 29.79 in1008.8 mb 0.00 in0.0 mm 0.00 in/hr0.0 mm/hr 0.00 in0.0 mm
08:28 AM 49.4°F9.7°C 39.7°F4.3°C 69% 6.0 mph SE9.7 kmh SE 9.0 mph14.5 kmh 29.79 in1008.8 mb 0.00 in0.0 mm 0.00 in/hr0.0 mm/hr 0.00 in0.0 mm
08:23 AM 49.1°F9.5°C 39.7°F4.3°C 70% 2.0 mph E3.2 kmh E 9.0 mph14.5 kmh 29.79 in1008.8 mb 0.00 in0.0 mm 0.00 in/hr0.0 mm/hr 0.00 in0.0 mm
08:18 AM 48.6°F9.2°C 39.3°F4.1°C 70% 3.0 mph E4.8 kmh E 9.0 mph14.5 kmh 29.79 in1008.8 mb 0.00 in0.0 mm 0.00 in/hr0.0 mm/hr 0.00 in0.0 mm
08:13 AM 48.2°F9.0°C 38.9°F3.8°C 70% 3.0 mph SE4.8 kmh SE 9.0 mph14.5 kmh 29.78 in1008.5 mb 0.00 in0.0 mm 0.00 in/hr0.0 mm/hr 0.00 in0.0 mm
08:08 AM 47.9°F8.8°C 38.6°F3.7°C 70% 4.0 mph E6.4 kmh E 10.0 mph16.1 kmh 29.78 in1008.5 mb 0.00 in0.0 mm 0.00 in/hr0.0 mm/hr 0.00 in0.0 mm
08:03 AM 47.6°F8.7°C 38.7°F3.7°C 71% 3.0 mph E4.8 kmh E 10.0 mph16.1 kmh 29.78 in1008.5 mb 0.00 in0.0 mm 0.00 in/hr0.0 mm/hr 0.00 in0.0 mm
07:58 AM 47.4°F8.6°C 38.5°F3.6°C 71% 2.0 mph E3.2 kmh E 10.0 mph16.1 kmh 29.77 in1008.1 mb 0.00 in0.0 mm 0.00 in/hr0.0 mm/hr 0.00 in0.0 mm
07:53 AM 47.0°F8.3°C 38.4°F3.6°C 72% 5.0 mph E8.0 kmh E 10.0 mph16.1 kmh 29.77 in1008.1 mb 0.00 in0.0 mm 0.00 in/hr0.0 mm/hr 0.00 in0.0 mm
07:48 AM 46.5°F8.1°C 38.0°F3.3°C 72% 4.0 mph ENE6.4 kmh ENE 9.0 mph14.5 kmh 29.77 in1008.1 mb 0.00 in0.0 mm 0.00 in/hr0.0 mm/hr 0.00 in0.0 mm
07:43 AM 46.1°F7.8°C 37.6°F3.1°C 72% 4.0 mph E6.4 kmh E 9.0 mph14.5 kmh 29.77 in1008.1 mb 0.00 in0.0 mm 0.00 in/hr0.0 mm/hr 0.00 in0.0 mm
07:38 AM 45.8°F7.7°C 37.3°F2.9°C 72% 6.0 mph E9.7 kmh E 6.0 mph9.7 kmh 29.77 in1008.1 mb 0.00 in0.0 mm 0.00 in/hr0.0 mm/hr 0.00 in0.0 mm
07:33 AM 45.5°F7.5°C 37.0°F2.8°C 72% 2.0 mph E3.2 kmh E 6.0 mph9.7 kmh 29.77 in1008.1 mb 0.00 in0.0 mm 0.00 in/hr0.0 mm/hr 0.00 in0.0 mm
07:28 AM 45.4°F7.4°C 36.9°F2.7°C 72% Calm Calm 6.0 mph9.7 kmh 29.77 in1008.1 mb 0.00 in0.0 mm 0.00 in/hr0.0 mm/hr 0.00 in0.0 mm
07:23 AM 45.2°F7.3°C 36.7°F2.6°C 72% 3.0 mph E4.8 kmh E 6.0 mph9.7 kmh 29.77 in1008.1 mb 0.00 in0.0 mm 0.00 in/hr0.0 mm/hr 0.00 in0.0 mm
07:18 AM 45.1°F7.3°C 36.6°F2.6°C 72% 3.0 mph E4.8 kmh E 6.0 mph9.7 kmh 29.77 in1008.1 mb 0.00 in0.0 mm 0.00 in/hr0.0 mm/hr 0.00 in0.0 mm
07:13 AM 44.9°F7.2°C 36.4°F2.4°C 72% 2.0 mph E3.2 kmh E 4.0 mph6.4 kmh 29.76 in1007.8 mb 0.00 in0.0 mm 0.00 in/hr0.0 mm/hr 0.00 in0.0 mm
07:08 AM 44.8°F7.1°C 36.0°F2.2°C 71% Calm Calm 4.0 mph6.4 kmh 29.76 in1007.8 mb 0.00 in0.0 mm 0.00 in/hr0.0 mm/hr 0.00 in0.0 mm
07:03 AM 44.9°F7.2°C 36.1°F2.3°C 71% 2.0 mph E3.2 kmh E 4.0 mph6.4 kmh 29.76 in1007.8 mb 0.00 in0.0 mm 0.00 in/hr0.0 mm/hr 0.00 in0.0 mm
06:58 AM 44.9°F7.2°C 36.1°F2.3°C 71% Calm Calm 2.0 mph3.2 kmh 29.75 in1007.5 mb 0.00 in0.0 mm 0.00 in/hr0.0 mm/hr 0.00 in0.0 mm
06:53 AM 45.1°F7.3°C 36.3°F2.4°C 71% Calm Calm -- 29.75 in1007.5 mb 0.00 in0.0 mm 0.00 in/hr0.0 mm/hr 0.00 in0.0 mm
06:48 AM 45.2°F7.3°C 36.4°F2.4°C 71% Calm Calm -- 29.75 in1007.5 mb 0.00 in0.0 mm 0.00 in/hr0.0 mm/hr 0.00 in0.0 mm
06:43 AM 45.2°F7.3°C 36.0°F2.2°C 70% Calm Calm -- 29.74 in1007.1 mb 0.00 in0.0 mm 0.00 in/hr0.0 mm/hr 0.00 in0.0 mm
06:38 AM 45.5°F7.5°C 36.3°F2.4°C 70% 1.0 mph ENE1.6 kmh ENE 1.0 mph1.6 kmh 29.74 in1007.1 mb 0.00 in0.0 mm 0.00 in/hr0.0 mm/hr 0.00 in0.0 mm
06:33 AM 45.8°F7.7°C 36.6°F2.6°C 70% 1.0 mph ENE1.6 kmh ENE 4.0 mph6.4 kmh 29.74 in1007.1 mb 0.00 in0.0 mm 0.00 in/hr0.0 mm/hr 0.00 in0.0 mm
06:28 AM 45.7°F7.6°C 36.8°F2.7°C 71% 3.0 mph ENE4.8 kmh ENE 4.0 mph6.4 kmh 29.75 in1007.5 mb 0.00 in0.0 mm 0.00 in/hr0.0 mm/hr 0.00 in0.0 mm
06:23 AM 45.5°F7.5°C 36.7°F2.6°C 71% 2.0 mph ENE3.2 kmh ENE 4.0 mph6.4 kmh 29.75 in1007.5 mb 0.00 in0.0 mm 0.00 in/hr0.0 mm/hr 0.00 in0.0 mm
06:18 AM 45.5°F7.5°C 36.3°F2.4°C 70% 2.0 mph ENE3.2 kmh ENE 2.0 mph3.2 kmh 29.75 in1007.5 mb 0.00 in0.0 mm 0.00 in/hr0.0 mm/hr 0.00 in0.0 mm
06:13 AM 45.7°F7.6°C 36.5°F2.5°C 70% 1.0 mph ENE1.6 kmh ENE 3.0 mph4.8 kmh 29.75 in1007.5 mb 0.00 in0.0 mm 0.00 in/hr0.0 mm/hr 0.00 in0.0 mm
06:08 AM 45.7°F7.6°C 36.5°F2.5°C 70% 1.0 mph ENE1.6 kmh ENE 3.0 mph4.8 kmh 29.75 in1007.5 mb 0.00 in0.0 mm 0.00 in/hr0.0 mm/hr 0.00 in0.0 mm
06:03 AM 45.8°F7.7°C 36.6°F2.6°C 70% 2.0 mph ENE3.2 kmh ENE 3.0 mph4.8 kmh 29.75 in1007.5 mb 0.00 in0.0 mm 0.00 in/hr0.0 mm/hr 0.00 in0.0 mm
05:58 AM 46.1°F7.8°C 36.5°F2.5°C 69% Calm Calm 3.0 mph4.8 kmh 29.74 in1007.1 mb 0.00 in0.0 mm 0.00 in/hr0.0 mm/hr 0.00 in0.0 mm
05:53 AM 46.2°F7.9°C 36.6°F2.6°C 69% 2.0 mph ENE3.2 kmh ENE 3.0 mph4.8 kmh 29.74 in1007.1 mb 0.00 in0.0 mm 0.00 in/hr0.0 mm/hr 0.00 in0.0 mm
05:48 AM 46.4°F8.0°C 36.8°F2.7°C 69% 2.0 mph ENE3.2 kmh ENE 3.0 mph4.8 kmh 29.74 in1007.1 mb 0.00 in0.0 mm 0.00 in/hr0.0 mm/hr 0.00 in0.0 mm
05:43 AM 46.7°F8.2°C 36.7°F2.6°C 68% Calm Calm -- 29.74 in1007.1 mb 0.00 in0.0 mm 0.00 in/hr0.0 mm/hr 0.00 in0.0 mm
05:38 AM 47.0°F8.3°C 37.0°F2.8°C 68% Calm Calm -- 29.74 in1007.1 mb 0.00 in0.0 mm 0.00 in/hr0.0 mm/hr 0.00 in0.0 mm
05:33 AM 47.0°F8.3°C 37.4°F3.0°C 69% Calm Calm 4.0 mph6.4 kmh 29.74 in1007.1 mb 0.00 in0.0 mm 0.00 in/hr0.0 mm/hr 0.00 in0.0 mm
05:28 AM 46.8°F8.2°C 37.2°F2.9°C 69% 1.0 mph ENE1.6 kmh ENE 4.0 mph6.4 kmh 29.72 in1006.4 mb 0.00 in0.0 mm 0.00 in/hr0.0 mm/hr 0.00 in0.0 mm
05:23 AM 47.1°F8.4°C 37.1°F2.8°C 68% 1.0 mph ENE1.6 kmh ENE 3.0 mph4.8 kmh 29.72 in1006.4 mb 0.00 in0.0 mm 0.00 in/hr0.0 mm/hr 0.00 in0.0 mm
05:18 AM 47.4°F8.6°C 37.0°F2.8°C 67% 2.0 mph ENE3.2 kmh ENE 3.0 mph4.8 kmh 29.72 in1006.4 mb 0.00 in0.0 mm 0.00 in/hr0.0 mm/hr 0.00 in0.0 mm
05:13 AM 47.9°F8.8°C 37.5°F3.1°C 67% 1.0 mph ENE1.6 kmh ENE 2.0 mph3.2 kmh 29.71 in1006.1 mb 0.00 in0.0 mm 0.00 in/hr0.0 mm/hr 0.00 in0.0 mm
05:08 AM 48.2°F9.0°C 37.4°F3.0°C 66% Calm Calm 4.0 mph6.4 kmh 29.71 in1006.1 mb 0.00 in0.0 mm 0.00 in/hr0.0 mm/hr 0.00 in0.0 mm
05:03 AM 48.3°F9.1°C 37.5°F3.1°C 66% 1.0 mph ENE1.6 kmh ENE 5.0 mph8.0 kmh 29.71 in1006.1 mb 0.00 in0.0 mm 0.00 in/hr0.0 mm/hr 0.00 in0.0 mm
04:58 AM 48.6°F9.2°C 37.4°F3.0°C 65% 2.0 mph ENE3.2 kmh ENE 5.0 mph8.0 kmh 29.70 in1005.8 mb 0.00 in0.0 mm 0.00 in/hr0.0 mm/hr 0.00 in0.0 mm
04:53 AM 48.9°F9.4°C 37.7°F3.2°C 65% 3.0 mph E4.8 kmh E 7.0 mph11.3 kmh 29.70 in1005.8 mb 0.00 in0.0 mm 0.00 in/hr0.0 mm/hr 0.00 in0.0 mm
04:48 AM 49.1°F9.5°C 37.8°F3.2°C 65% 1.0 mph E1.6 kmh E 7.0 mph11.3 kmh 29.70 in1005.8 mb 0.00 in0.0 mm 0.00 in/hr0.0 mm/hr 0.00 in0.0 mm
04:43 AM 49.1°F9.5°C 37.8°F3.2°C 65% 4.0 mph ENE6.4 kmh ENE 7.0 mph11.3 kmh 29.70 in1005.8 mb 0.00 in0.0 mm 0.00 in/hr0.0 mm/hr 0.00 in0.0 mm
04:38 AM 49.1°F9.5°C 37.8°F3.2°C 65% 3.0 mph ENE4.8 kmh ENE 7.0 mph11.3 kmh 29.70 in1005.8 mb 0.00 in0.0 mm 0.00 in/hr0.0 mm/hr 0.00 in0.0 mm
04:33 AM 49.1°F9.5°C 37.8°F3.2°C 65% 4.0 mph E6.4 kmh E 6.0 mph9.7 kmh 29.70 in1005.8 mb 0.00 in0.0 mm 0.00 in/hr0.0 mm/hr 0.00 in0.0 mm
04:28 AM 48.9°F9.4°C 37.7°F3.2°C 65% 5.0 mph ENE8.0 kmh ENE 7.0 mph11.3 kmh 29.70 in1005.8 mb 0.00 in0.0 mm 0.00 in/hr0.0 mm/hr 0.00 in0.0 mm
04:23 AM 48.9°F9.4°C 38.0°F3.3°C 66% 5.0 mph ENE8.0 kmh ENE 7.0 mph11.3 kmh 29.70 in1005.8 mb 0.00 in0.0 mm 0.00 in/hr0.0 mm/hr 0.00 in0.0 mm
04:18 AM 48.9°F9.4°C 38.0°F3.3°C 66% 5.0 mph ENE8.0 kmh ENE 7.0 mph11.3 kmh 29.70 in1005.8 mb 0.00 in0.0 mm 0.00 in/hr0.0 mm/hr 0.00 in0.0 mm
04:13 AM 48.9°F9.4°C 38.0°F3.3°C 66% 4.0 mph E6.4 kmh E 7.0 mph11.3 kmh 29.70 in1005.8 mb 0.00 in0.0 mm 0.00 in/hr0.0 mm/hr 0.00 in0.0 mm
04:08 AM 49.1°F9.5°C 38.2°F3.4°C 66% 4.0 mph E6.4 kmh E 7.0 mph11.3 kmh 29.70 in1005.8 mb 0.00 in0.0 mm 0.00 in/hr0.0 mm/hr 0.00 in0.0 mm
04:03 AM 49.1°F9.5°C 38.2°F3.4°C 66% 4.0 mph ENE6.4 kmh ENE 7.0 mph11.3 kmh 29.70 in1005.8 mb 0.00 in0.0 mm 0.00 in/hr0.0 mm/hr 0.00 in0.0 mm
03:58 AM 49.1°F9.5°C 38.2°F3.4°C 66% 6.0 mph E9.7 kmh E 7.0 mph11.3 kmh 29.70 in1005.8 mb 0.00 in0.0 mm 0.00 in/hr0.0 mm/hr 0.00 in0.0 mm
03:53 AM 49.1°F9.5°C 38.6°F3.7°C 67% 5.0 mph ENE8.0 kmh ENE 7.0 mph11.3 kmh 29.70 in1005.8 mb 0.00 in0.0 mm 0.00 in/hr0.0 mm/hr 0.00 in0.0 mm
03:48 AM 49.2°F9.6°C 38.3°F3.5°C 66% 6.0 mph ENE9.7 kmh ENE 7.0 mph11.3 kmh 29.70 in1005.8 mb 0.00 in0.0 mm 0.00 in/hr0.0 mm/hr 0.00 in0.0 mm
03:43 AM 49.2°F9.6°C 38.3°F3.5°C 66% 4.0 mph ENE6.4 kmh ENE 7.0 mph11.3 kmh 29.70 in1005.8 mb 0.00 in0.0 mm 0.00 in/hr0.0 mm/hr 0.00 in0.0 mm
03:38 AM 49.2°F9.6°C 38.7°F3.7°C 67% 4.0 mph ENE6.4 kmh ENE 7.0 mph11.3 kmh 29.70 in1005.8 mb 0.00 in0.0 mm 0.00 in/hr0.0 mm/hr 0.00 in0.0 mm
03:33 AM 49.2°F9.6°C 39.1°F3.9°C 68% 5.0 mph ENE8.0 kmh ENE 7.0 mph11.3 kmh 29.70 in1005.8 mb 0.00 in0.0 mm 0.00 in/hr0.0 mm/hr 0.00 in0.0 mm
03:28 AM 49.1°F9.5°C 39.0°F3.9°C 68% 4.0 mph NE6.4 kmh NE 7.0 mph11.3 kmh 29.70 in1005.8 mb 0.00 in0.0 mm 0.00 in/hr0.0 mm/hr 0.00 in0.0 mm
03:23 AM 48.9°F9.4°C 39.2°F4.0°C 69% 5.0 mph NE8.0 kmh NE 7.0 mph11.3 kmh 29.70 in1005.8 mb 0.00 in0.0 mm 0.00 in/hr0.0 mm/hr 0.00 in0.0 mm
03:18 AM 48.8°F9.3°C 39.5°F4.2°C 70% 6.0 mph NE9.7 kmh NE 7.0 mph11.3 kmh 29.70 in1005.8 mb 0.00 in0.0 mm 0.00 in/hr0.0 mm/hr 0.00 in0.0 mm
03:13 AM 48.6°F9.2°C 39.6°F4.2°C 71% 4.0 mph NE6.4 kmh NE 7.0 mph11.3 kmh 29.71 in1006.1 mb 0.00 in0.0 mm 0.00 in/hr0.0 mm/hr 0.00 in0.0 mm
03:08 AM 48.3°F9.1°C 40.1°F4.5°C 73% 5.0 mph NE8.0 kmh NE 6.0 mph9.7 kmh 29.71 in1006.1 mb 0.00 in0.0 mm 0.00 in/hr0.0 mm/hr 0.00 in0.0 mm
03:03 AM 48.0°F8.9°C 40.5°F4.7°C 75% 3.0 mph NE4.8 kmh NE 6.0 mph9.7 kmh 29.71 in1006.1 mb 0.00 in0.0 mm 0.00 in/hr0.0 mm/hr 0.00 in0.0 mm
02:58 AM 47.7°F8.7°C 41.2°F5.1°C 78% 4.0 mph NE6.4 kmh NE 6.0 mph9.7 kmh 29.71 in1006.1 mb 0.00 in0.0 mm 0.00 in/hr0.0 mm/hr 0.00 in0.0 mm
02:53 AM 47.3°F8.5°C 41.4°F5.2°C 80% 3.0 mph NE4.8 kmh NE 4.0 mph6.4 kmh 29.71 in1006.1 mb 0.00 in0.0 mm 0.00 in/hr0.0 mm/hr 0.00 in0.0 mm
02:48 AM 47.1°F8.4°C 41.3°F5.2°C 80% 2.0 mph NE3.2 kmh NE 3.0 mph4.8 kmh 29.71 in1006.1 mb 0.00 in0.0 mm 0.00 in/hr0.0 mm/hr 0.00 in0.0 mm
02:43 AM 47.3°F8.5°C 41.8°F5.4°C 81% 1.0 mph NE1.6 kmh NE 2.0 mph3.2 kmh 29.71 in1006.1 mb 0.00 in0.0 mm 0.00 in/hr0.0 mm/hr 0.00 in0.0 mm
02:38 AM 47.4°F8.6°C 41.9°F5.5°C 81% Calm Calm -- 29.71 in1006.1 mb 0.00 in0.0 mm 0.00 in/hr0.0 mm/hr 0.00 in0.0 mm
02:33 AM 47.4°F8.6°C 41.9°F5.5°C 81% Calm Calm -- 29.71 in1006.1 mb 0.00 in0.0 mm 0.00 in/hr0.0 mm/hr 0.00 in0.0 mm
02:28 AM 47.6°F8.7°C 42.1°F5.6°C 81% 2.0 mph E3.2 kmh E 2.0 mph3.2 kmh 29.72 in1006.4 mb 0.00 in0.0 mm 0.00 in/hr0.0 mm/hr 0.00 in0.0 mm
02:23 AM 47.6°F8.7°C 42.1°F5.6°C 81% Calm Calm 1.0 mph1.6 kmh 29.72 in1006.4 mb 0.00 in0.0 mm 0.00 in/hr0.0 mm/hr 0.00 in0.0 mm
02:18 AM 47.7°F8.7°C 42.2°F5.7°C 81% Calm Calm 1.0 mph1.6 kmh 29.72 in1006.4 mb 0.00 in0.0 mm 0.00 in/hr0.0 mm/hr 0.00 in0.0 mm
02:13 AM 47.7°F8.7°C 42.2°F5.7°C 81% Calm Calm -- 29.70 in1005.8 mb 0.00 in0.0 mm 0.00 in/hr0.0 mm/hr 0.00 in0.0 mm
02:08 AM 47.7°F8.7°C 42.2°F5.7°C 81% 1.0 mph E1.6 kmh E 5.0 mph8.0 kmh 29.70 in1005.8 mb 0.00 in0.0 mm 0.00 in/hr0.0 mm/hr 0.00 in0.0 mm
02:03 AM 47.7°F8.7°C 42.2°F5.7°C 81% Calm Calm 5.0 mph8.0 kmh 29.70 in1005.8 mb 0.00 in0.0 mm 0.00 in/hr0.0 mm/hr 0.00 in0.0 mm
01:58 AM 47.7°F8.7°C 42.2°F5.7°C 81% 2.0 mph E3.2 kmh E 5.0 mph8.0 kmh 29.70 in1005.8 mb 0.00 in0.0 mm 0.00 in/hr0.0 mm/hr 0.00 in0.0 mm
01:53 AM 47.7°F8.7°C 42.2°F5.7°C 81% 1.0 mph ENE1.6 kmh ENE 5.0 mph8.0 kmh 29.70 in1005.8 mb 0.00 in0.0 mm 0.00 in/hr0.0 mm/hr 0.00 in0.0 mm
01:48 AM 47.7°F8.7°C 42.2°F5.7°C 81% 2.0 mph NE3.2 kmh NE 4.0 mph6.4 kmh 29.70 in1005.8 mb 0.00 in0.0 mm 0.00 in/hr0.0 mm/hr 0.00 in0.0 mm
01:43 AM 47.7°F8.7°C 42.5°F5.8°C 82% 3.0 mph NNE4.8 kmh NNE 3.0 mph4.8 kmh 29.70 in1005.8 mb 0.00 in0.0 mm 0.00 in/hr0.0 mm/hr 0.00 in0.0 mm
01:38 AM 47.6°F8.7°C 42.4°F5.8°C 82% 3.0 mph NNE4.8 kmh NNE 3.0 mph4.8 kmh 29.70 in1005.8 mb 0.00 in0.0 mm 0.00 in/hr0.0 mm/hr 0.00 in0.0 mm
01:33 AM 47.6°F8.7°C 42.4°F5.8°C 82% Calm Calm -- 29.70 in1005.8 mb 0.00 in0.0 mm 0.00 in/hr0.0 mm/hr 0.00 in0.0 mm
01:28 AM 47.4°F8.6°C 42.2°F5.7°C 82% 1.0 mph NNE1.6 kmh NNE 2.0 mph3.2 kmh 29.71 in1006.1 mb 0.00 in0.0 mm 0.00 in/hr0.0 mm/hr 0.00 in0.0 mm
01:23 AM 47.4°F8.6°C 42.2°F5.7°C 82% 2.0 mph NNE3.2 kmh NNE 2.0 mph3.2 kmh 29.71 in1006.1 mb 0.00 in0.0 mm 0.00 in/hr0.0 mm/hr 0.00 in0.0 mm
01:18 AM 47.4°F8.6°C 42.2°F5.7°C 82% Calm Calm -- 29.71 in1006.1 mb 0.00 in0.0 mm 0.00 in/hr0.0 mm/hr 0.00 in0.0 mm
01:13 AM 47.4°F8.6°C 42.2°F5.7°C 82% Calm Calm -- 29.71 in1006.1 mb 0.00 in0.0 mm 0.00 in/hr0.0 mm/hr 0.00 in0.0 mm
01:08 AM 47.4°F8.6°C 42.2°F5.7°C 82% Calm Calm 4.0 mph6.4 kmh 29.71 in1006.1 mb 0.00 in0.0 mm 0.00 in/hr0.0 mm/hr 0.00 in0.0 mm
01:03 AM 47.3°F8.5°C 42.4°F5.8°C 83% 2.0 mph NNE3.2 kmh NNE 4.0 mph6.4 kmh 29.71 in1006.1 mb 0.00 in0.0 mm 0.00 in/hr0.0 mm/hr 0.00 in0.0 mm
12:58 AM 47.3°F8.5°C 42.4°F5.8°C 83% 1.0 mph NNE1.6 kmh NNE 4.0 mph6.4 kmh 29.71 in1006.1 mb 0.00 in0.0 mm 0.00 in/hr0.0 mm/hr 0.00 in0.0 mm
12:53 AM 47.1°F8.4°C 42.2°F5.7°C 83% 3.0 mph NNE4.8 kmh NNE 4.0 mph6.4 kmh 29.71 in1006.1 mb 0.00 in0.0 mm 0.00 in/hr0.0 mm/hr 0.00 in0.0 mm
12:48 AM 47.0°F8.3°C 42.1°F5.6°C 83% 1.0 mph N1.6 kmh N 2.0 mph3.2 kmh 29.71 in1006.1 mb 0.00 in0.0 mm 0.00 in/hr0.0 mm/hr 0.00 in0.0 mm
12:43 AM 47.0°F8.3°C 42.1°F5.6°C 83% Calm Calm -- 29.71 in1006.1 mb 0.00 in0.0 mm 0.00 in/hr0.0 mm/hr 0.00 in0.0 mm
12:38 AM 46.8°F8.2°C 41.9°F5.5°C 83% Calm Calm 2.0 mph3.2 kmh 29.71 in1006.1 mb 0.00 in0.0 mm 0.00 in/hr0.0 mm/hr 0.00 in0.0 mm
12:33 AM 46.8°F8.2°C 41.9°F5.5°C 83% 1.0 mph N1.6 kmh N 2.0 mph3.2 kmh 29.71 in1006.1 mb 0.00 in0.0 mm 0.00 in/hr0.0 mm/hr 0.00 in0.0 mm
12:28 AM 46.8°F8.2°C 41.9°F5.5°C 83% 2.0 mph N3.2 kmh N 2.0 mph3.2 kmh 29.71 in1006.1 mb 0.00 in0.0 mm 0.00 in/hr0.0 mm/hr 0.00 in0.0 mm
12:23 AM 46.8°F8.2°C 41.9°F5.5°C 83% Calm Calm -- 29.71 in1006.1 mb 0.00 in0.0 mm 0.00 in/hr0.0 mm/hr 0.00 in0.0 mm
12:18 AM 47.0°F8.3°C 42.1°F5.6°C 83% Calm Calm -- 29.71 in1006.1 mb 0.00 in0.0 mm 0.00 in/hr0.0 mm/hr 0.00 in0.0 mm
12:13 AM 47.0°F8.3°C 42.1°F5.6°C 83% Calm Calm -- 29.72 in1006.4 mb 0.00 in0.0 mm 0.00 in/hr0.0 mm/hr 0.00 in0.0 mm
12:08 AM 47.0°F8.3°C 42.1°F5.6°C 83% Calm Calm 2.0 mph3.2 kmh 29.72 in1006.4 mb 0.00 in0.0 mm 0.00 in/hr0.0 mm/hr 0.00 in0.0 mm
12:03 AM 47.0°F8.3°C 42.1°F5.6°C 83% 1.0 mph N1.6 kmh N 2.0 mph3.2 kmh 29.72 in1006.4 mb 0.00 in0.0 mm 0.00 in/hr0.0 mm/hr 0.00 in0.0 mm